createdAt,value
2023-03-03T00:01:39.830Z,100473.25
2023-03-03T00:04:06.383Z,100468.59
2023-03-03T00:06:32.920Z,100470.50
2023-03-03T00:08:59.445Z,100480.63
2023-03-03T00:11:25.896Z,100474.63
2023-03-03T00:13:54.627Z,100475.19
2023-03-03T00:16:26.373Z,100476.53
2023-03-03T00:18:53.918Z,100474.34
2023-03-03T00:21:23.292Z,100479.28
2023-03-03T00:23:50.716Z,100480.66
2023-03-03T00:26:28.039Z,100486.16
2023-03-03T00:28:57.134Z,100486.69
2023-03-03T00:31:34.821Z,100496.31
2023-03-03T00:34:25.506Z,100496.56
2023-03-03T00:36:57.286Z,100495.72
2023-03-03T00:39:37.023Z,100494.38
2023-03-03T00:42:24.666Z,100494.34
2023-03-03T00:45:00.698Z,100487.53
2023-03-03T00:47:32.061Z,100494.34
2023-03-03T00:50:08.465Z,100494.34
2023-03-03T00:52:37.335Z,100502.03
2023-03-03T00:55:05.154Z,100498.47
2023-03-03T00:57:31.954Z,100493.25
2023-03-03T00:59:58.477Z,100499.84
2023-03-03T01:02:25.527Z,100496.81
2023-03-03T01:04:54.392Z,100497.91
2023-03-03T01:07:21.627Z,100494.88
2023-03-03T01:09:48.380Z,100495.16
2023-03-03T01:12:15.537Z,100499.81
2023-03-03T01:14:42.311Z,100501.13
2023-03-03T01:17:08.840Z,100505.56
2023-03-03T01:19:35.392Z,100506.94
2023-03-03T01:22:01.966Z,100506.66
2023-03-03T01:24:28.474Z,100503.66
2023-03-03T01:26:55.046Z,100499.81
2023-03-03T01:29:21.526Z,100501.97
2023-03-03T01:31:47.975Z,100510.72
2023-03-03T01:34:14.583Z,100505.56
2023-03-03T01:36:41.344Z,100504.97
2023-03-03T01:39:08.047Z,100498.72
2023-03-03T01:41:34.585Z,100505.25
2023-03-03T01:44:01.260Z,100500.56
2023-03-03T01:46:40.763Z,100501.38
2023-03-03T01:49:14.608Z,100498.72
2023-03-03T01:51:51.143Z,100496.94
2023-03-03T01:54:39.229Z,100493.59
2023-03-03T01:57:08.444Z,100495.31
2023-03-03T01:59:38.098Z,100496.69
2023-03-03T02:02:05.072Z,100486.00
2023-03-03T02:04:31.896Z,100486.56
2023-03-03T02:07:01.970Z,100490.09
2023-03-03T02:09:56.202Z,100496.38
2023-03-03T02:12:37.037Z,100493.13
2023-03-03T02:15:22.395Z,100493.41
2023-03-03T02:17:51.230Z,100492.50
2023-03-03T02:20:39.653Z,100493.25
2023-03-03T02:23:31.408Z,100502.09
2023-03-03T02:25:59.171Z,100488.72
2023-03-03T02:28:32.665Z,100491.47
2023-03-03T02:31:00.370Z,100489.81
2023-03-03T02:33:28.221Z,100489.28
2023-03-03T02:35:55.328Z,100486.84
2023-03-03T02:38:30.031Z,100493.66
2023-03-03T02:41:03.829Z,100494.09
2023-03-03T02:43:47.323Z,100491.13
2023-03-03T02:46:14.293Z,100497.97
2023-03-03T02:48:41.103Z,100486.25
2023-03-03T02:51:07.687Z,100489.81
2023-03-03T02:53:34.393Z,100487.63
2023-03-03T02:56:00.998Z,100493.09
2023-03-03T02:58:27.731Z,100488.66
2023-03-03T03:00:55.629Z,100499.66
2023-03-03T03:03:22.644Z,100496.13
2023-03-03T03:05:49.341Z,100505.63
2023-03-03T03:08:15.955Z,100506.44
2023-03-03T03:10:42.410Z,100500.66
2023-03-03T03:13:09.367Z,100496.56
2023-03-03T03:15:36.255Z,100503.97
2023-03-03T03:18:02.913Z,100501.22
2023-03-03T03:20:29.413Z,100509.44
2023-03-03T03:22:56.009Z,100513.78
2023-03-03T03:25:22.520Z,100518.16
2023-03-03T03:27:49.148Z,100514.34
2023-03-03T03:30:16.104Z,100503.91
2023-03-03T03:32:42.612Z,100505.28
2023-03-03T03:35:09.329Z,100508.84
2023-03-03T03:37:35.763Z,100505.84
2023-03-03T03:40:02.172Z,100493.28
2023-03-03T03:42:28.631Z,100494.63
2023-03-03T03:44:55.064Z,100495.19
2023-03-03T03:47:21.927Z,100501.47
2023-03-03T03:49:48.493Z,100509.69
2023-03-03T03:52:15.367Z,100507.53
2023-03-03T03:54:41.958Z,100518.47
2023-03-03T03:57:08.718Z,100520.09
2023-03-03T03:59:35.265Z,100512.69
2023-03-03T04:02:01.912Z,100518.19
2023-03-03T04:04:28.600Z,100518.72
2023-03-03T04:06:55.212Z,100516.53
2023-03-03T04:09:21.657Z,100523.91
2023-03-03T04:11:48.295Z,100530.75
2023-03-03T04:14:14.792Z,100531.03
2023-03-03T04:16:41.302Z,100535.13
2023-03-03T04:19:07.880Z,100519.81
2023-03-03T04:21:34.383Z,100520.94
2023-03-03T04:24:00.902Z,100532.97
2023-03-03T04:26:27.440Z,100530.22
2023-03-03T04:28:53.948Z,100543.34
2023-03-03T04:31:20.734Z,100540.91
2023-03-03T04:33:47.298Z,100532.44
2023-03-03T04:36:13.927Z,100544.16
2023-03-03T04:38:40.525Z,100544.47
2023-03-03T04:41:07.268Z,100540.09
2023-03-03T04:43:33.989Z,100546.94
2023-03-03T04:46:00.429Z,100541.66
2023-03-03T04:48:27.025Z,100539.53
2023-03-03T04:50:53.505Z,100545.81
2023-03-03T04:53:19.970Z,100542.81
2023-03-03T04:55:46.632Z,100537.59
2023-03-03T04:58:13.197Z,100538.94
2023-03-03T05:00:40.142Z,100541.72
2023-03-03T05:03:07.081Z,100548.88
2023-03-03T05:05:33.536Z,100545.84
2023-03-03T05:08:00.037Z,100541.19
2023-03-03T05:10:26.817Z,100558.97
2023-03-03T05:12:53.337Z,100551.84
2023-03-03T05:15:20.293Z,100556.22
2023-03-03T05:17:46.807Z,100543.91
2023-03-03T05:20:13.903Z,100528.06
2023-03-03T05:22:40.622Z,100520.81
2023-03-03T05:25:07.700Z,100535.69
2023-03-03T05:27:34.410Z,100540.63
2023-03-03T05:30:00.852Z,100553.59
2023-03-03T05:32:27.378Z,100538.56
2023-03-03T05:34:54.066Z,100532.50
2023-03-03T05:37:20.810Z,100542.84
2023-03-03T05:39:47.370Z,100548.41
2023-03-03T05:42:14.572Z,100550.09
2023-03-03T05:44:41.358Z,100555.81
2023-03-03T05:47:07.951Z,100559.06
2023-03-03T05:49:34.610Z,100557.19
2023-03-03T05:52:01.557Z,100557.03
2023-03-03T05:54:28.172Z,100555.94
2023-03-03T05:56:54.619Z,100555.16
2023-03-03T05:59:21.396Z,100559.81
2023-03-03T06:01:47.922Z,100553.81
2023-03-03T06:04:14.485Z,100550.88
2023-03-03T06:06:41.022Z,100554.41
2023-03-03T06:09:07.596Z,100545.84
2023-03-03T06:11:34.077Z,100545.31
2023-03-03T06:14:00.576Z,100543.19
2023-03-03T06:16:27.162Z,100542.38
2023-03-03T06:18:53.627Z,100547.31
2023-03-03T06:21:20.069Z,100547.06
2023-03-03T06:23:47.073Z,100545.16
2023-03-03T06:26:13.725Z,100552.56
2023-03-03T06:28:40.261Z,100561.34
2023-03-03T06:31:06.804Z,100563.25
2023-03-03T06:33:33.279Z,100563.56
2023-03-03T06:35:59.963Z,100573.66
2023-03-03T06:38:26.770Z,100577.22
2023-03-03T06:40:53.493Z,100592.81
2023-03-03T06:43:20.514Z,100591.22
2023-03-03T06:45:47.123Z,100592.00
2023-03-03T06:48:13.843Z,100587.59
2023-03-03T06:50:40.644Z,100584.28
2023-03-03T06:53:14.147Z,100573.09
2023-03-03T06:55:44.326Z,100579.09
2023-03-03T06:58:21.512Z,100578.56
2023-03-03T07:00:57.487Z,100583.00
2023-03-03T07:03:25.895Z,100593.16
2023-03-03T07:05:53.628Z,100594.50
2023-03-03T07:08:22.500Z,100592.34
2023-03-03T07:10:50.283Z,100599.72
2023-03-03T07:13:27.872Z,100592.31
2023-03-03T07:15:56.355Z,100595.91
2023-03-03T07:18:35.122Z,100588.00
2023-03-03T07:21:17.380Z,100592.97
2023-03-03T07:23:45.648Z,100606.97
2023-03-03T07:26:14.222Z,100611.31
2023-03-03T07:28:43.134Z,100605.56
2023-03-03T07:31:36.964Z,100615.97
2023-03-03T07:34:15.206Z,100621.44
2023-03-03T07:36:41.823Z,100635.34
2023-03-03T07:39:33.218Z,100623.09
2023-03-03T07:42:09.575Z,100631.78
2023-03-03T07:44:37.234Z,100633.50
2023-03-03T07:47:36.353Z,100634.59
2023-03-03T07:50:19.024Z,100632.97
2023-03-03T07:53:14.761Z,100632.16
2023-03-03T07:55:41.513Z,100631.38
2023-03-03T07:58:11.238Z,100631.38
2023-03-03T08:01:15.452Z,100630.81
2023-03-03T08:03:44.848Z,100632.75
2023-03-03T08:06:42.825Z,100633.31
2023-03-03T08:09:12.335Z,100633.09
2023-03-03T08:12:08.065Z,100630.31
2023-03-03T08:14:36.306Z,100631.94
2023-03-03T08:17:07.903Z,100631.38
2023-03-03T08:19:34.433Z,100628.94
2023-03-03T08:22:07.112Z,100615.81
2023-03-03T08:24:33.552Z,100628.66
2023-03-03T08:27:00.113Z,100630.38
2023-03-03T08:29:26.486Z,100637.50
2023-03-03T08:31:53.031Z,100630.09
2023-03-03T08:34:20.649Z,100629.53
2023-03-03T08:36:47.489Z,100637.22
2023-03-03T08:39:13.996Z,100633.41
2023-03-03T08:41:43.741Z,100639.69
2023-03-03T08:44:11.120Z,100635.31
2023-03-03T08:46:37.917Z,100643.25
2023-03-03T08:49:04.472Z,100647.66
2023-03-03T08:51:31.082Z,100655.34
2023-03-03T08:53:57.559Z,100649.59
2023-03-03T08:56:24.046Z,100644.66
2023-03-03T08:59:01.878Z,100642.50
2023-03-03T09:01:29.917Z,100640.53
2023-03-03T09:03:56.481Z,100636.41
2023-03-03T09:06:23.462Z,100644.09
2023-03-03T09:08:50.338Z,100647.66
2023-03-03T09:11:24.231Z,100647.66
2023-03-03T09:13:53.305Z,100649.56
2023-03-03T09:16:22.212Z,100651.25
2023-03-03T09:18:48.753Z,100645.47
2023-03-03T09:21:27.090Z,100652.66
2023-03-03T09:23:58.516Z,100649.88
2023-03-03T09:26:45.075Z,100658.63
2023-03-03T09:29:14.416Z,100663.84
2023-03-03T09:31:46.544Z,100654.56
2023-03-03T09:34:21.580Z,100656.72
2023-03-03T09:36:49.521Z,100667.09
2023-03-03T09:39:21.187Z,100669.84
2023-03-03T09:42:28.699Z,100687.66
2023-03-03T09:45:17.976Z,100676.13
2023-03-03T09:48:08.882Z,100678.00
2023-03-03T09:50:49.383Z,100681.63
2023-03-03T09:53:25.044Z,100683.03
2023-03-03T09:56:08.352Z,100685.75
2023-03-03T09:58:45.723Z,100685.22
2023-03-03T10:01:24.496Z,100684.66
2023-03-03T10:04:00.660Z,100683.28
2023-03-03T10:06:45.796Z,100681.38
2023-03-03T10:09:55.350Z,100686.31
2023-03-03T10:12:46.467Z,100695.91
2023-03-03T10:15:26.162Z,100697.00
2023-03-03T10:17:54.282Z,100705.25
2023-03-03T10:20:59.584Z,100701.97
2023-03-03T10:23:42.432Z,100707.72
2023-03-03T10:26:17.504Z,100696.22
2023-03-03T10:28:58.816Z,100692.09
2023-03-03T10:31:54.096Z,100691.00
2023-03-03T10:34:39.348Z,100692.94
2023-03-03T10:37:14.005Z,100692.97
2023-03-03T10:39:54.978Z,100700.88
2023-03-03T10:43:00.405Z,100699.50
2023-03-03T10:46:04.015Z,100696.28
2023-03-03T10:48:45.832Z,100699.28
2023-03-03T10:51:25.512Z,100707.25
2023-03-03T10:54:38.591Z,100688.53
2023-03-03T10:57:42.855Z,100692.44
2023-03-03T11:00:31.962Z,100693.78
2023-03-03T11:03:36.623Z,100700.97
2023-03-03T11:06:20.638Z,100700.38
2023-03-03T11:08:57.585Z,100692.69
2023-03-03T11:11:46.979Z,100689.69
2023-03-03T11:14:38.814Z,100688.03
2023-03-03T11:17:19.349Z,100689.66
2023-03-03T11:20:24.303Z,100689.97
2023-03-03T11:23:08.198Z,100689.41
2023-03-03T11:25:56.636Z,100692.69
2023-03-03T11:28:35.596Z,100685.00
2023-03-03T11:31:05.121Z,100683.09
2023-03-03T11:33:40.667Z,100677.06
2023-03-03T11:36:13.219Z,100676.22
2023-03-03T11:38:59.174Z,100677.63
2023-03-03T11:41:40.861Z,100681.44
2023-03-03T11:44:29.269Z,100675.41
2023-03-03T11:47:32.069Z,100680.06
2023-03-03T11:50:32.373Z,100669.91
2023-03-03T11:53:49.660Z,100672.66
2023-03-03T11:56:23.417Z,100668.81
2023-03-03T11:58:58.873Z,100668.53
2023-03-03T12:01:47.035Z,100672.63
2023-03-03T12:04:16.299Z,100661.03
2023-03-03T12:07:12.923Z,100665.19
2023-03-03T12:10:09.043Z,100664.34
2023-03-03T12:12:44.351Z,100656.03
2023-03-03T12:15:28.016Z,100661.59
2023-03-03T12:18:03.952Z,100664.63
2023-03-03T12:20:48.849Z,100656.97
2023-03-03T12:23:18.540Z,100650.38
2023-03-03T12:25:58.762Z,100661.06
2023-03-03T12:28:28.526Z,100650.63
2023-03-03T12:31:14.097Z,100645.38
2023-03-03T12:33:53.191Z,100651.44
2023-03-03T12:36:27.778Z,100642.44
2023-03-03T12:39:05.835Z,100647.84
2023-03-03T12:41:53.723Z,100638.22
2023-03-03T12:44:37.493Z,100630.84
2023-03-03T12:47:11.402Z,100634.59
2023-03-03T12:50:08.085Z,100638.22
2023-03-03T12:52:57.507Z,100621.63
2023-03-03T12:55:43.815Z,100620.88
2023-03-03T12:58:45.834Z,100618.72
2023-03-03T13:01:22.681Z,100619.88
2023-03-03T13:04:10.611Z,100618.19
2023-03-03T13:07:12.723Z,100622.56
2023-03-03T13:10:14.426Z,100623.13
2023-03-03T13:13:04.110Z,100629.72
2023-03-03T13:15:55.263Z,100627.25
2023-03-03T13:18:28.560Z,100626.44
2023-03-03T13:21:11.437Z,100630.81
2023-03-03T13:23:49.210Z,100623.47
2023-03-03T13:26:45.141Z,100624.28
2023-03-03T13:29:26.869Z,100618.75
2023-03-03T13:31:59.978Z,100617.69
2023-03-03T13:34:32.587Z,100617.41
2023-03-03T13:37:06.643Z,100614.34
2023-03-03T13:39:38.572Z,100609.34
2023-03-03T13:42:16.164Z,100604.97
2023-03-03T13:44:43.786Z,100602.22
2023-03-03T13:47:25.436Z,100606.75
2023-03-03T13:50:14.030Z,100610.56
2023-03-03T13:52:59.692Z,100604.38
2023-03-03T13:55:46.666Z,100608.00
2023-03-03T13:58:16.258Z,100600.06
2023-03-03T14:01:05.030Z,100597.28
2023-03-03T14:03:43.794Z,100600.66
2023-03-03T14:06:15.890Z,100590.03
2023-03-03T14:08:56.008Z,100583.69
2023-03-03T14:11:49.039Z,100589.66
2023-03-03T14:14:18.373Z,100595.09
2023-03-03T14:16:54.015Z,100587.41
2023-03-03T14:19:23.262Z,100585.22
2023-03-03T14:21:58.131Z,100578.59
2023-03-03T14:24:26.601Z,100576.06
2023-03-03T14:26:55.486Z,100573.31
2023-03-03T14:29:35.176Z,100577.81
2023-03-03T14:32:03.970Z,100577.03
2023-03-03T14:34:38.778Z,100574.81
2023-03-03T14:37:29.462Z,100580.91
2023-03-03T14:40:22.440Z,100575.31
2023-03-03T14:42:57.032Z,100573.13
2023-03-03T14:45:40.591Z,100570.38
2023-03-03T14:48:18.348Z,100569.00
2023-03-03T14:50:52.007Z,100566.25
2023-03-03T14:53:18.570Z,100568.16
2023-03-03T14:55:50.310Z,100561.09
2023-03-03T14:58:29.136Z,100562.78
2023-03-03T15:01:33.223Z,100553.97
2023-03-03T15:04:25.228Z,100556.94
2023-03-03T15:06:53.854Z,100556.66
2023-03-03T15:09:38.958Z,100559.88
2023-03-03T15:12:19.796Z,100561.00
2023-03-03T15:14:49.122Z,100561.63
2023-03-03T15:17:33.604Z,100564.19
2023-03-03T15:20:23.235Z,100566.09
2023-03-03T15:23:32.030Z,100562.50
2023-03-03T15:26:06.769Z,100560.28
2023-03-03T15:28:55.211Z,100559.47
2023-03-03T15:31:30.709Z,100551.75
2023-03-03T15:34:16.006Z,100547.69
2023-03-03T15:36:49.217Z,100556.22
2023-03-03T15:40:17.869Z,100556.22
2023-03-03T15:42:58.479Z,100556.75
2023-03-03T15:45:43.658Z,100553.97
2023-03-03T15:48:17.392Z,100559.19
2023-03-03T15:50:57.095Z,100553.72
2023-03-03T15:53:35.905Z,100560.06
2023-03-03T15:56:21.363Z,100562.56
2023-03-03T15:59:06.808Z,100563.66
2023-03-03T16:01:34.990Z,100553.53
2023-03-03T16:04:20.181Z,100562.03
2023-03-03T16:06:58.930Z,100559.28
2023-03-03T16:09:32.246Z,100558.19
2023-03-03T16:12:10.237Z,100552.41
2023-03-03T16:14:55.464Z,100557.91
2023-03-03T16:17:40.439Z,100555.75
2023-03-03T16:20:29.891Z,100556.03
2023-03-03T16:23:23.343Z,100553.03
2023-03-03T16:25:58.976Z,100549.75
2023-03-03T16:28:47.437Z,100557.41
2023-03-03T16:31:22.494Z,100553.59
2023-03-03T16:33:55.278Z,100553.59
2023-03-03T16:36:21.664Z,100562.91
2023-03-03T16:38:53.409Z,100559.91
2023-03-03T16:41:59.807Z,100558.81
2023-03-03T16:44:38.430Z,100559.63
2023-03-03T16:47:23.863Z,100558.81
2023-03-03T16:49:55.818Z,100558.53
2023-03-03T16:52:48.283Z,100554.41
2023-03-03T16:56:13.422Z,100545.91
2023-03-03T16:58:55.038Z,100550.56
2023-03-03T17:01:43.990Z,100560.72
2023-03-03T17:04:44.980Z,100556.34
2023-03-03T17:07:39.427Z,100554.69
2023-03-03T17:10:17.679Z,100558.78
2023-03-03T17:13:16.486Z,100551.41
2023-03-03T17:15:46.004Z,100558.53
2023-03-03T17:18:14.511Z,100559.34
2023-03-03T17:20:49.161Z,100552.22
2023-03-03T17:23:21.657Z,100550.59
2023-03-03T17:26:06.718Z,100553.31
2023-03-03T17:28:55.657Z,100561.28
2023-03-03T17:31:31.282Z,100562.09
2023-03-03T17:34:10.260Z,100566.75
2023-03-03T17:36:58.419Z,100563.75
2023-03-03T17:39:50.244Z,100573.06
2023-03-03T17:42:37.020Z,100576.63
2023-03-03T17:45:14.922Z,100571.16
2023-03-03T17:47:56.794Z,100568.94
2023-03-03T17:50:48.215Z,100566.22
2023-03-03T17:53:23.917Z,100565.66
2023-03-03T17:55:56.409Z,100565.66
2023-03-03T17:58:29.072Z,100563.47
2023-03-03T18:01:03.197Z,100571.41
2023-03-03T18:03:52.524Z,100570.88
2023-03-03T18:06:43.610Z,100569.50
2023-03-03T18:09:17.368Z,100568.94
2023-03-03T18:12:05.204Z,100565.38
2023-03-03T18:14:53.545Z,100566.19
2023-03-03T18:17:39.207Z,100565.66
2023-03-03T18:20:28.498Z,100564.00
2023-03-03T18:22:55.396Z,100571.44
2023-03-03T18:25:27.070Z,100567.59
2023-03-03T18:27:59.546Z,100562.63
2023-03-03T18:30:33.457Z,100562.91
2023-03-03T18:33:03.332Z,100568.41
2023-03-03T18:35:32.820Z,100574.97
2023-03-03T18:38:17.788Z,100573.88
2023-03-03T18:41:04.466Z,100574.16
2023-03-03T18:43:43.154Z,100572.50
2023-03-03T18:46:36.046Z,100579.91
2023-03-03T18:49:10.182Z,100586.78
2023-03-03T18:51:39.813Z,100580.22
2023-03-03T18:54:30.917Z,100580.50
2023-03-03T18:56:57.884Z,100581.00
2023-03-03T18:59:30.513Z,100577.44
2023-03-03T19:02:18.183Z,100572.78
2023-03-03T19:05:08.766Z,100573.34
2023-03-03T19:07:59.788Z,100577.75
2023-03-03T19:10:49.807Z,100577.75
2023-03-03T19:13:34.717Z,100575.81
2023-03-03T19:16:06.436Z,100578.84
2023-03-03T19:18:56.050Z,100568.69
2023-03-03T19:21:28.022Z,100574.44
2023-03-03T19:24:00.511Z,100580.19
2023-03-03T19:26:30.258Z,100582.66
2023-03-03T19:29:09.219Z,100572.50
2023-03-03T19:31:49.788Z,100578.53
2023-03-03T19:34:19.247Z,100576.91
2023-03-03T19:37:28.403Z,100571.94
2023-03-03T19:40:18.513Z,100570.59
2023-03-03T19:43:36.446Z,100575.00
2023-03-03T19:46:43.642Z,100568.13
2023-03-03T19:49:41.275Z,100571.13
2023-03-03T19:52:25.327Z,100564.53
2023-03-03T19:55:04.513Z,100567.81
2023-03-03T19:57:35.896Z,100572.19
2023-03-03T20:00:20.687Z,100564.53
2023-03-03T20:03:05.977Z,100572.47
2023-03-03T20:05:35.046Z,100574.13
2023-03-03T20:08:17.498Z,100574.66
2023-03-03T20:10:57.670Z,100572.19
2023-03-03T20:13:37.499Z,100574.41
2023-03-03T20:16:30.234Z,100568.38
2023-03-03T20:19:18.583Z,100572.22
2023-03-03T20:21:48.166Z,100571.91
2023-03-03T20:24:47.335Z,100552.41
2023-03-03T20:27:20.898Z,100556.31
2023-03-03T20:33:15.887Z,100555.22
2023-03-03T20:36:17.816Z,100550.53
2023-03-03T20:39:04.707Z,100550.53
2023-03-03T20:42:09.183Z,100554.09
2023-03-03T20:45:35.258Z,100552.19
2023-03-03T20:48:50.160Z,100547.25
2023-03-03T20:51:43.172Z,100544.78
2023-03-03T20:54:59.792Z,100546.44
2023-03-03T20:57:51.983Z,100549.69
2023-03-03T21:00:32.027Z,100539.56
2023-03-03T21:03:18.453Z,100534.88
2023-03-03T21:06:01.038Z,100531.88
2023-03-03T21:08:41.970Z,100540.09
2023-03-03T21:11:12.785Z,100532.69
2023-03-03T21:13:42.949Z,100538.75
2023-03-03T21:16:21.929Z,100532.41
2023-03-03T21:18:59.926Z,100525.81
2023-03-03T21:21:29.216Z,100526.09
2023-03-03T21:24:03.796Z,100528.84
2023-03-03T21:26:47.708Z,100522.78
2023-03-03T21:29:36.856Z,100515.13
2023-03-03T21:32:09.713Z,100514.53
2023-03-03T21:34:39.448Z,100513.19
2023-03-03T21:37:11.566Z,100519.22
2023-03-03T21:39:40.951Z,100513.72
2023-03-03T21:42:12.354Z,100515.63
2023-03-03T21:44:44.638Z,100502.97
2023-03-03T21:47:14.757Z,100510.69
2023-03-03T21:49:43.047Z,100508.50
2023-03-03T21:52:10.758Z,100506.28
2023-03-03T21:54:37.361Z,100507.16
2023-03-03T21:57:04.250Z,100506.84
2023-03-03T21:59:30.875Z,100508.50
2023-03-03T22:01:57.534Z,100508.47
2023-03-03T22:04:24.208Z,100501.38
2023-03-03T22:06:52.724Z,100504.09
2023-03-03T22:09:19.552Z,100507.13
2023-03-03T22:11:46.063Z,100502.47
2023-03-03T22:14:12.619Z,100501.38
2023-03-03T22:16:39.442Z,100500.25
2023-03-03T22:19:06.315Z,100505.47
2023-03-03T22:21:32.753Z,100503.53
2023-03-03T22:23:59.219Z,100493.13
2023-03-03T22:26:26.253Z,100494.22
2023-03-03T22:28:52.859Z,100494.50
2023-03-03T22:31:22.523Z,100487.06
2023-03-03T22:33:49.760Z,100488.75
2023-03-03T22:36:16.472Z,100480.47
2023-03-03T22:38:43.008Z,100479.38
2023-03-03T22:41:09.533Z,100479.41
2023-03-03T22:43:36.079Z,100479.94
2023-03-03T22:46:02.625Z,100477.19
2023-03-03T22:48:30.061Z,100473.91
2023-03-03T22:50:56.513Z,100472.81
2023-03-03T22:53:23.730Z,100472.81
2023-03-03T22:55:50.676Z,100478.31
2023-03-03T22:58:19.735Z,100478.56
2023-03-03T23:00:49.381Z,100479.94
2023-03-03T23:03:16.602Z,100465.66
2023-03-03T23:05:43.295Z,100470.63
2023-03-03T23:08:13.197Z,100456.63
2023-03-03T23:10:39.980Z,100463.50
2023-03-03T23:13:07.243Z,100453.59
2023-03-03T23:15:34.882Z,100459.09
2023-03-03T23:18:01.803Z,100447.56
2023-03-03T23:20:29.658Z,100443.19
2023-03-03T23:22:56.148Z,100439.34
2023-03-03T23:25:23.849Z,100446.47
2023-03-03T23:27:50.732Z,100444.25
2023-03-03T23:30:19.398Z,100449.19
2023-03-03T23:32:47.087Z,100435.72
2023-03-03T23:35:14.194Z,100433.56
2023-03-03T23:37:40.764Z,100433.00
2023-03-03T23:40:08.234Z,100436.56
2023-03-03T23:42:34.780Z,100436.81
2023-03-03T23:45:01.465Z,100436.56
2023-03-03T23:47:27.985Z,100435.47
2023-03-03T23:49:55.133Z,100439.84
2023-03-03T23:52:21.929Z,100435.72
2023-03-03T23:54:48.410Z,100429.97
2023-03-03T23:57:14.908Z,100432.72
2023-03-03T23:59:41.361Z,100417.91
